Time;durP1;ratioP1;P1;durP2;ratioP2;P2;SDS_P1;SDS_P2;PMS_P1;PMS_P2;Temp;Humidity;BMP_temperature;BMP_pressure;BME280_temperature;BME280_humidity;BME280_pressure;Samples;Min_cycle;Max_cycle;Signal;HPM_P1;HPM_P2
2022/09/30 00:01:33;;;;;;;4.68;3.40;;;;;;;16.33;71.58;98941.66;4906662;29;20031;-89
2022/09/30 00:03:58;;;;;;;5.07;3.35;;;;;;;16.36;71.25;98949.16;4905493;29;20019;-89
2022/09/30 00:06:25;;;;;;;6.20;3.50;;;;;;;16.15;72.34;98954.41;4921170;29;20031;-88
2022/09/30 00:08:50;;;;;;;6.35;3.60;;;;;;;15.98;73.01;98948.94;4919243;29;20020;-89
2022/09/30 00:11:17;;;;;;;12.68;3.67;;;;;;;16.05;72.85;98951.19;4904921;29;20031;-89
2022/09/30 00:13:44;;;;;;;5.35;3.50;;;;;;;15.89;73.35;98951.59;4886088;29;20032;-88
2022/09/30 00:16:11;;;;;;;13.20;4.18;;;;;;;15.87;73.72;98959.25;4902257;29;20099;-89
2022/09/30 00:18:37;;;;;;;7.03;3.38;;;;;;;15.77;74.28;98948.66;4889055;29;20065;-89
2022/09/30 00:21:03;;;;;;;7.68;4.00;;;;;;;15.82;73.51;98947.75;4905292;29;20046;-89
2022/09/30 00:23:28;;;;;;;7.15;3.88;;;;;;;15.82;73.25;98929.53;4920815;29;20032;-89
2022/09/30 00:25:58;;;;;;;6.82;3.70;;;;;;;15.99;72.91;98928.78;4904181;29;20490;-88
2022/09/30 00:28:23;;;;;;;6.22;3.78;;;;;;;16.01;72.53;98920.34;4889110;29;20399;-89
2022/09/30 00:30:49;;;;;;;7.15;3.63;;;;;;;16.09;72.12;98936.66;4904625;29;20028;-89
2022/09/30 00:33:14;;;;;;;5.40;3.30;;;;;;;16.15;72.17;98942.75;4920525;29;20024;-89
2022/09/30 00:35:39;;;;;;;6.55;3.78;;;;;;;16.12;72.06;98937.91;4905286;29;20027;-89
2022/09/30 00:38:05;;;;;;;7.95;4.47;;;;;;;16.02;72.82;98933.59;4888846;29;20024;-89
2022/09/30 00:40:31;;;;;;;7.40;4.10;;;;;;;15.94;73.11;98937.09;4885720;29;20039;-89
2022/09/30 00:42:57;;;;;;;5.90;3.88;;;;;;;15.98;72.80;98956.25;4901541;29;20084;-89
2022/09/30 00:45:24;;;;;;;5.63;3.67;;;;;;;16.00;72.92;98960.28;4901646;29;20027;-89
2022/09/30 00:48:02;;;;;;;7.90;4.10;;;;;;;16.15;72.26;98959.84;4885840;29;20047;-89
2022/09/30 00:50:35;;;;;;;10.45;4.80;;;;;;;16.07;71.88;98944.31;4918698;29;20043;-89
2022/09/30 00:53:15;;;;;;;5.15;3.80;;;;;;;16.25;71.60;98971.50;4904676;29;20061;-89
2022/09/30 00:56:05;;;;;;;5.75;3.67;;;;;;;16.17;70.97;98954.88;4937024;29;20114;-89
2022/09/30 00:58:44;;;;;;;5.00;2.65;;;;;;;16.20;70.25;98955.38;4906754;29;20104;-89
2022/09/30 01:01:09;;;;;;;6.38;2.90;;;;;;;16.21;69.72;98954.25;4904405;29;20024;-89
2022/09/30 01:03:40;;;;;;;6.00;2.42;;;;;;;16.32;69.08;98971.84;4903962;29;20054;-89
2022/09/30 01:06:06;;;;;;;3.85;2.40;;;;;;;16.28;69.21;98960.03;4904358;29;20154;-89
2022/09/30 01:08:34;;;;;;;2.85;2.00;;;;;;;16.36;68.68;98972.81;4888129;29;20035;-89
2022/09/30 01:11:00;;;;;;;3.10;2.03;;;;;;;16.31;68.69;98956.66;4904179;29;20036;-89
2022/09/30 01:13:26;;;;;;;5.30;2.03;;;;;;;16.27;69.00;98948.38;4888859;29;20032;-89
2022/09/30 01:16:05;;;;;;;5.70;2.17;;;;;;;16.35;69.16;98969.31;4920071;29;20035;-89
2022/09/30 01:19:03;;;;;;;3.15;2.03;;;;;;;16.25;68.74;98950.59;4920132;29;20028;-89
2022/09/30 01:21:34;;;;;;;3.25;2.30;;;;;;;16.08;69.71;98955.97;4906457;29;20582;-89
2022/09/30 01:24:35;;;;;;;4.93;3.03;;;;;;;16.07;71.13;98989.69;4901511;29;20024;-88
2022/09/30 01:27:04;;;;;;;4.28;2.70;;;;;;;15.99;71.33;98991.25;4885472;29;20048;-89
2022/09/30 01:29:44;;;;;;;4.53;2.38;;;;;;;16.08;70.82;98994.00;4910251;29;20054;-89
2022/09/30 01:32:28;;;;;;;3.33;2.42;;;;;;;16.09;70.35;98988.25;4919527;29;20032;-89
2022/09/30 01:35:03;;;;;;;3.97;2.40;;;;;;;16.05;70.79;98997.34;4936147;29;20027;-89
2022/09/30 01:37:44;;;;;;;6.75;2.40;;;;;;;16.00;70.95;98997.47;4903890;29;20098;-89
2022/09/30 01:40:21;;;;;;;8.60;2.80;;;;;;;15.75;72.10;98994.34;4919072;29;20487;-89
2022/09/30 01:43:02;;;;;;;3.38;2.65;;;;;;;15.76;71.95;99001.38;4935899;29;20035;-89
2022/09/30 01:45:36;;;;;;;5.20;2.83;;;;;;;15.65;72.15;98995.38;4918779;29;20047;-88
2022/09/30 01:48:04;;;;;;;4.85;2.60;;;;;;;15.75;72.11;98997.06;4888055;29;20042;-89
2022/09/30 01:50:52;;;;;;;4.22;3.00;;;;;;;15.73;71.93;98991.94;4918867;29;20410;-89
2022/09/30 01:53:21;;;;;;;3.80;2.80;;;;;;;15.85;71.49;99001.41;4904358;29;20506;-89
2022/09/30 01:55:57;;;;;;;5.75;2.83;;;;;;;15.78;71.53;98980.13;4936071;29;20024;-89
2022/09/30 01:58:35;;;;;;;4.50;2.38;;;;;;;15.71;72.01;98982.50;4920534;29;20030;-88
2022/09/30 02:01:01;;;;;;;6.20;2.75;;;;;;;15.59;73.08;98987.69;4904072;29;20407;-88
2022/09/30 02:03:32;;;;;;;4.65;2.90;;;;;;;15.52;73.77;98998.97;4904842;29;20035;-89
2022/09/30 02:06:01;;;;;;;6.97;3.42;;;;;;;15.26;74.13;98980.63;4904260;29;20118;-89
2022/09/30 02:08:33;;;;;;;4.50;2.90;;;;;;;15.29;74.02;98995.47;4919134;29;20030;-89
2022/09/30 02:11:06;;;;;;;5.82;3.42;;;;;;;15.22;73.89;98985.06;4903819;29;20084;-89
2022/09/30 02:13:42;;;;;;;4.95;3.03;;;;;;;15.41;73.42;99003.84;4903629;29;20035;-90
2022/09/30 02:16:13;;;;;;;4.70;2.65;;;;;;;15.36;72.96;98979.56;4919319;29;20086;-89
2022/09/30 02:19:09;;;;;;;3.22;2.60;;;;;;;15.50;72.70;98990.31;4903691;29;20024;-89
2022/09/30 02:21:36;;;;;;;4.30;3.08;;;;;;;15.64;72.51;99003.81;4917363;29;20051;-90
2022/09/30 02:24:04;;;;;;;4.78;2.92;;;;;;;15.55;72.90;98995.66;4906816;29;20414;-89
2022/09/30 02:26:32;;;;;;;4.18;2.80;;;;;;;15.49;73.25;99008.53;4903399;29;20030;-90
2022/09/30 02:29:03;;;;;;;6.57;3.20;;;;;;;15.53;72.52;98993.22;4916254;29;20463;-89
2022/09/30 02:31:28;;;;;;;5.50;2.75;;;;;;;15.66;71.89;98994.25;4904082;29;20062;-89
2022/09/30 02:33:57;;;;;;;3.13;2.45;;;;;;;15.70;71.68;98992.53;4899837;29;20021;-90
2022/09/30 02:36:29;;;;;;;5.32;2.40;;;;;;;15.71;71.66;98982.50;4884318;29;20509;-89
2022/09/30 02:39:01;;;;;;;5.35;2.33;;;;;;;15.78;71.18;98999.16;4899939;29;20024;-89
2022/09/30 02:41:26;;;;;;;2.95;2.20;;;;;;;15.74;71.29;99006.31;4884219;29;20065;-90
2022/09/30 02:43:53;;;;;;;4.63;2.50;;;;;;;15.74;71.53;99004.38;4891140;29;20031;-89
2022/09/30 02:46:34;;;;;;;3.55;2.30;;;;;;;15.73;71.20;98996.56;4902957;29;20016;-90
2022/09/30 02:49:12;;;;;;;4.65;2.15;;;;;;;15.85;70.91;99004.91;4922498;29;20020;-89
2022/09/30 02:51:58;;;;;;;3.08;2.25;;;;;;;15.92;70.31;99001.78;4939344;29;20060;-90
2022/09/30 02:54:30;;;;;;;3.67;2.35;;;;;;;15.82;71.34;98991.97;4939011;29;20034;-89
2022/09/30 02:57:05;;;;;;;3.30;2.60;;;;;;;15.52;72.05;98982.69;4921999;29;20019;-89
2022/09/30 02:59:31;;;;;;;5.68;3.15;;;;;;;15.41;72.47;98984.84;4907119;29;20020;-89
2022/09/30 03:01:56;;;;;;;5.30;3.03;;;;;;;15.35;72.63;98992.31;4890918;29;20103;-89
2022/09/30 03:04:27;;;;;;;7.00;3.05;;;;;;;15.34;73.01;98988.00;4903386;29;20479;-89
2022/09/30 03:06:53;;;;;;;11.88;6.80;;;;;;;15.31;73.24;99001.38;4903913;29;20028;-89
2022/09/30 03:09:25;;;;;;;7.93;3.85;;;;;;;15.23;73.40;98994.81;4902863;29;20075;-89
2022/09/30 03:11:58;;;;;;;10.57;4.28;;;;;;;15.39;72.99;99014.22;4872283;29;20035;-88
2022/09/30 03:14:33;;;;;;;18.05;5.13;;;;;;;15.33;73.34;99026.28;4882350;29;20049;-89
2022/09/30 03:17:11;;;;;;;7.57;3.92;;;;;;;15.18;74.04;99019.31;4906528;29;20031;-88
2022/09/30 03:19:52;;;;;;;8.68;5.00;;;;;;;15.04;74.75;99019.38;4939599;29;20048;-89
2022/09/30 03:22:40;;;;;;;11.18;4.60;;;;;;;15.04;74.44;99021.28;4906983;29;20032;-89
2022/09/30 03:25:15;;;;;;;8.30;4.88;;;;;;;15.00;74.93;99012.16;4908028;29;20035;-88
2022/09/30 03:28:05;;;;;;;10.45;5.30;;;;;;;14.91;74.93;99003.97;4922291;29;20486;-89
2022/09/30 03:31:28;;;;;;;9.65;4.60;;;;;;;14.92;74.95;99017.22;4892936;29;20035;-89
2022/09/30 03:34:10;;;;;;;9.52;3.85;;;;;;;14.97;74.43;99019.00;4921764;29;20039;-89
2022/09/30 03:36:39;;;;;;;6.75;3.88;;;;;;;14.93;73.98;99001.75;4906387;29;20131;-89
2022/09/30 03:39:32;;;;;;;9.23;4.90;;;;;;;15.05;74.09;99010.16;4890648;29;20038;-89
2022/09/30 03:42:21;;;;;;;14.63;4.28;;;;;;;15.00;74.37;99006.75;4906232;29;20039;-89
2022/09/30 03:45:02;;;;;;;9.50;4.55;;;;;;;15.09;74.26;99019.28;4891123;29;20062;-89
2022/09/30 03:47:28;;;;;;;14.40;5.00;;;;;;;15.01;73.96;98992.09;4921778;29;20039;-89
2022/09/30 03:49:57;;;;;;;9.25;5.07;;;;;;;15.05;74.10;99007.44;4906092;29;20032;-89
2022/09/30 03:52:22;;;;;;;13.88;4.50;;;;;;;14.99;74.54;99005.16;4906350;29;20501;-89
2022/09/30 03:55:10;;;;;;;8.23;4.80;;;;;;;15.02;74.61;99010.75;4905942;29;20087;-89
2022/09/30 03:57:35;;;;;;;16.13;10.93;;;;;;;15.01;73.88;98998.31;4908464;29;20027;-89
2022/09/30 04:00:01;;;;;;;11.30;8.20;;;;;;;15.00;73.97;98990.47;4920986;29;20043;-89
2022/09/30 04:02:27;;;;;;;12.25;6.32;;;;;;;15.09;73.40;98992.16;4915534;29;20027;-88
2022/09/30 04:04:52;;;;;;;10.80;5.45;;;;;;;15.07;73.18;98985.44;4914234;29;20091;-89
2022/09/30 04:07:18;;;;;;;8.77;4.45;;;;;;;15.07;73.61;98991.66;4889300;29;20034;-90
2022/09/30 04:09:43;;;;;;;11.63;6.60;;;;;;;15.00;74.33;98987.75;4889759;29;20534;-90
2022/09/30 04:12:09;;;;;;;9.30;4.13;;;;;;;14.85;74.44;98969.94;4889659;29;20036;-90
2022/09/30 04:14:34;;;;;;;8.10;4.45;;;;;;;14.66;74.72;98972.81;4888615;29;20031;-89
2022/09/30 04:17:00;;;;;;;5.47;3.47;;;;;;;14.55;75.02;98977.63;4910484;29;20099;-88
2022/09/30 04:19:36;;;;;;;11.77;4.20;;;;;;;14.51;74.93;98958.47;4919784;28;20040;-93
2022/09/30 04:22:02;;;;;;;8.05;3.95;;;;;;;14.52;74.96;98975.53;4909151;29;20107;-93
2022/09/30 04:24:28;;;;;;;11.85;4.95;;;;;;;14.58;74.63;98987.09;4925709;28;20059;-91
2022/09/30 04:27:03;;;;;;;17.42;4.45;;;;;;;14.32;75.93;98987.59;4944875;29;20056;-96
2022/09/30 04:29:28;;;;;;;12.98;8.05;;;;;;;14.27;76.16;98987.69;4943487;29;20046;-95
2022/09/30 04:31:57;;;;;;;9.65;4.40;;;;;;;14.32;76.74;99007.34;4936463;28;20024;-96
2022/09/30 04:34:22;;;;;;;7.78;3.08;;;;;;;14.19;76.55;99002.72;4906100;29;20086;-95
2022/09/30 04:37:01;;;;;;;12.65;6.10;;;;;;;14.27;75.89;98995.81;4907061;28;20027;-96
2022/09/30 04:39:35;;;;;;;13.05;6.00;;;;;;;14.39;75.68;98990.69;4911453;29;20051;-95
2022/09/30 04:42:04;;;;;;;8.93;4.80;;;;;;;14.46;75.55;98991.06;4908821;29;20070;-96
2022/09/30 04:44:34;;;;;;;7.65;4.80;;;;;;;14.48;75.83;99009.75;4920461;29;20043;-96
2022/09/30 04:47:02;;;;;;;8.30;3.30;;;;;;;14.49;75.63;99008.66;4919590;29;20044;-96
2022/09/30 04:49:28;;;;;;;6.00;3.42;;;;;;;14.53;75.63;99015.06;4914141;29;20403;-96
2022/09/30 04:51:54;;;;;;;9.00;3.20;;;;;;;14.58;75.22;99014.97;4914924;29;20023;-95
2022/09/30 04:54:19;;;;;;;6.75;3.88;;;;;;;14.60;75.55;99025.50;4917727;29;20031;-94
2022/09/30 04:56:45;;;;;;;10.18;5.32;;;;;;;14.59;75.98;99022.00;4918469;29;20031;-96
2022/09/30 04:59:10;;;;;;;11.35;3.97;;;;;;;14.44;75.92;99014.94;4916209;29;20031;-96
2022/09/30 05:01:41;;;;;;;6.13;3.83;;;;;;;14.43;76.33;99026.91;4899219;29;20031;-96
2022/09/30 05:04:07;;;;;;;7.72;4.38;;;;;;;14.41;76.27;99036.44;4915343;29;20102;-95
2022/09/30 05:06:41;;;;;;;11.27;4.72;;;;;;;14.51;76.02;99041.66;4912091;29;20039;-95
2022/09/30 05:09:10;;;;;;;12.05;7.35;;;;;;;14.47;76.60;99040.66;4903760;29;20064;-94
2022/09/30 05:11:39;;;;;;;10.43;5.95;;;;;;;14.57;75.85;99048.59;4911786;29;20122;-95
2022/09/30 05:14:08;;;;;;;16.67;9.68;;;;;;;14.55;75.70;99048.06;4901332;29;20027;-96
2022/09/30 05:16:37;;;;;;;45.75;19.38;;;;;;;14.57;75.38;99043.19;4912506;29;20027;-94
2022/09/30 05:19:23;;;;;;;23.67;13.48;;;;;;;14.62;75.41;99053.13;4890747;29;20120;-96
2022/09/30 05:21:53;;;;;;;6.88;4.28;;;;;;;14.85;75.04;99076.47;4875260;29;20060;-95
2022/09/30 05:24:25;;;;;;;7.90;4.82;;;;;;;14.78;74.87;99051.69;4860856;29;20047;-96
2022/09/30 05:26:50;;;;;;;17.23;5.03;;;;;;;14.79;74.90;99055.19;4889836;29;20093;-96
2022/09/30 05:29:16;;;;;;;22.80;6.45;;;;;;;14.84;74.88;99044.25;4857281;29;20465;-93
2022/09/30 05:31:48;;;;;;;9.77;4.72;;;;;;;14.86;74.63;99047.47;4858695;29;20585;-95
2022/09/30 05:34:25;;;;;;;8.73;3.85;;;;;;;15.00;74.79;99058.25;4890847;29;20439;-95
2022/09/30 05:36:54;;;;;;;10.43;4.90;;;;;;;15.16;74.52;99062.22;5246702;23;20025;-96
2022/09/30 05:39:32;;;;;;;5.90;4.00;;;;;;;15.09;74.18;99043.66;4907924;29;20040;-96
2022/09/30 05:42:01;;;;;;;8.93;4.57;;;;;;;15.38;74.00;99076.91;4915353;29;20056;-96
2022/09/30 05:44:27;;;;;;;10.85;4.47;;;;;;;15.36;74.00;99059.03;5095846;24;20044;-95
2022/09/30 05:47:01;;;;;;;9.13;4.20;;;;;;;15.57;73.68;99066.69;4917225;29;20053;-96
2022/09/30 05:49:27;;;;;;;15.50;5.47;;;;;;;15.65;73.17;99073.28;4894774;29;20024;-95
2022/09/30 05:51:52;;;;;;;11.32;4.53;;;;;;;15.74;72.90;99076.88;4891924;29;20027;-94
2022/09/30 05:54:18;;;;;;;6.32;3.95;;;;;;;15.88;72.01;99074.91;4911072;29;20072;-95
2022/09/30 05:56:43;;;;;;;9.65;5.43;;;;;;;15.99;71.82;99063.78;4897424;29;20495;-94
2022/09/30 05:59:09;;;;;;;9.95;3.63;;;;;;;16.33;70.15;99091.09;4925250;29;20514;-96
2022/09/30 06:01:35;;;;;;;20.38;12.27;;;;;;;16.28;70.26;99064.06;4912624;29;20028;-94
2022/09/30 06:04:00;;;;;;;11.73;5.80;;;;;;;16.48;69.32;99091.78;4901748;29;20039;-95
2022/09/30 06:06:26;;;;;;;7.45;3.47;;;;;;;16.54;68.22;99093.25;4896235;29;20035;-95
2022/09/30 06:09:12;;;;;;;7.22;3.25;;;;;;;16.54;69.00;99093.25;4912702;29;20478;-96
2022/09/30 06:11:41;;;;;;;5.97;4.35;;;;;;;16.55;68.58;99087.47;4916881;29;20036;-96
2022/09/30 06:14:10;;;;;;;10.20;3.78;;;;;;;16.65;67.45;99094.56;4929862;29;20027;-95
2022/09/30 06:16:53;;;;;;;10.95;4.97;;;;;;;16.64;67.63;99084.78;4908550;29;20126;-96
2022/09/30 06:19:31;;;;;;;12.23;3.42;;;;;;;16.75;66.78;99086.13;4891864;29;20027;-96
2022/09/30 06:22:43;;;;;;;6.10;2.50;;;;;;;16.76;65.81;99081.47;4911385;29;20050;-94
2022/09/30 06:25:12;;;;;;;6.03;2.45;;;;;;;17.04;65.91;99092.13;4924144;29;20039;-93
2022/09/30 06:30:50;;;;;;;9.05;2.97;;;;;;;17.33;64.55;99103.19;4849187;29;20049;-95
2022/09/30 06:33:20;;;;;;;5.05;2.60;;;;;;;17.53;63.85;99106.38;4839567;29;20037;-96
2022/09/30 06:54:03;;;;;;;7.93;4.57;;;;;;;18.24;61.58;99097.78;5432551;23;20058;-96
2022/09/30 06:56:28;;;;;;;6.35;3.40;;;;;;;18.45;60.84;99099.75;4897608;29;20127;-96
2022/09/30 06:58:55;;;;;;;4.47;3.20;;;;;;;18.63;59.77;99105.94;4906721;29;20019;-94
2022/09/30 07:01:23;;;;;;;6.15;3.60;;;;;;;18.74;59.72;99096.28;4891550;29;20028;-94
2022/09/30 07:03:49;;;;;;;5.80;3.20;;;;;;;18.92;60.02;99110.63;4890892;29;20020;-96
2022/09/30 07:09:40;;;;;;;3.30;2.42;;;;;;;19.34;59.53;99132.47;4896522;29;20075;-96
2022/09/30 07:12:06;;;;;;;11.07;6.65;;;;;;;19.35;59.74;99113.03;4892223;29;20055;-96
2022/09/30 07:14:34;;;;;;;7.93;4.97;;;;;;;19.45;59.00;99116.53;5108409;23;20092;-93
2022/09/30 07:17:07;;;;;;;4.05;3.00;;;;;;;19.70;58.23;99126.44;4933194;29;20052;-96
2022/09/30 07:19:41;;;;;;;6.07;3.10;;;;;;;19.72;58.27;99107.00;4914270;29;20050;-92
2022/09/30 07:22:34;;;;;;;9.30;3.53;;;;;;;19.89;57.58;99112.28;4911698;29;20016;-96
2022/09/30 07:29:30;;;;;;;4.13;2.25;;;;;;;20.18;55.49;99105.06;4948455;29;20043;-96
2022/09/30 07:32:26;;;;;;;12.63;3.30;;;;;;;20.28;56.68;99112.81;4891904;29;20086;-96
2022/09/30 07:38:39;;;;;;;4.38;2.70;;;;;;;20.74;55.15;99146.38;5598772;23;20066;-96
2022/09/30 07:41:12;;;;;;;10.48;2.40;;;;;;;20.67;55.62;99128.94;4915602;29;20032;-94
2022/09/30 07:50:23;;;;;;;3.85;2.55;;;;;;;21.19;53.64;99134.50;4942284;29;20451;-91
2022/09/30 07:52:51;;;;;;;4.78;2.85;;;;;;;21.34;53.64;99140.41;4914326;29;20046;-95
2022/09/30 07:55:17;;;;;;;8.80;6.22;;;;;;;21.49;53.88;99138.91;4904074;29;20034;-94
2022/09/30 07:57:51;;;;;;;5.38;3.03;;;;;;;21.63;51.54;99138.53;4919699;29;20123;-96
2022/09/30 08:00:17;;;;;;;6.45;2.42;;;;;;;21.74;51.53;99134.91;4918827;29;20034;-96
2022/09/30 08:03:07;;;;;;;;;;;;;;;;;;;;;
2022/09/30 08:05:43;;;;;;;5.38;3.10;;;;;;;21.93;51.13;99139.75;5274791;24;20430;-94
2022/09/30 08:08:15;;;;;;;4.95;2.50;;;;;;;22.11;50.91;99147.66;4876764;29;20518;-96
2022/09/30 08:10:43;;;;;;;5.93;3.25;;;;;;;22.22;50.95;99143.25;4925840;29;20024;-95
2022/09/30 08:13:19;;;;;;;;;;;;;;;;;;;;;
2022/09/30 08:26:04;;;;;;;13.13;5.68;;;;;;;22.87;49.76;99156.66;4928085;29;20489;-93
2022/09/30 08:28:34;;;;;;;5.32;2.65;;;;;;;22.85;48.91;99136.19;4895511;29;20566;-95
2022/09/30 08:36:24;;;;;;;5.00;2.30;;;;;;;23.39;47.69;99165.72;5137940;23;20094;-95
2022/09/30 08:38:50;;;;;;;4.50;2.70;;;;;;;23.46;47.32;99160.34;5009462;23;20067;-94
2022/09/30 08:41:39;;;;;;;4.10;2.50;;;;;;;23.68;47.05;99169.84;4936676;29;20039;-95
2022/09/30 08:44:31;;;;;;;4.82;2.30;;;;;;;23.82;46.35;99169.34;4919394;28;20035;-96
2022/09/30 08:47:17;;;;;;;4.68;2.63;;;;;;;23.92;46.41;99174.28;4925671;29;20569;-94
2022/09/30 08:50:23;;;;;;;4.90;3.00;;;;;;;24.02;45.83;99172.91;4927321;29;20051;-96
2022/09/30 08:53:33;;;;;;;4.60;2.95;;;;;;;24.04;44.76;99164.28;4931833;29;20051;-95
2022/09/30 09:03:02;;;;;;;5.25;2.53;;;;;;;24.45;42.12;99170.16;4897667;29;20556;-94
2022/09/30 09:05:55;;;;;;;3.40;2.00;;;;;;;24.61;42.07;99176.34;4918203;29;20043;-95
2022/09/30 09:08:20;;;;;;;4.88;2.30;;;;;;;24.72;41.84;99176.53;4921622;29;20023;-95
2022/09/30 09:10:53;;;;;;;5.30;2.95;;;;;;;24.76;41.83;99172.66;4927045;29;20173;-93
2022/09/30 09:13:18;;;;;;;7.07;2.53;;;;;;;24.99;42.20;99189.16;4910942;29;20070;-94
2022/09/30 09:16:02;;;;;;;3.55;2.53;;;;;;;25.08;41.68;99188.91;4944702;29;20442;-95
2022/09/30 09:18:40;;;;;;;3.78;3.10;;;;;;;25.10;41.79;99192.06;4947223;29;20447;-92
2022/09/30 09:21:11;;;;;;;6.38;2.30;;;;;;;25.02;42.27;99182.91;4949285;29;20032;-92
2022/09/30 09:23:39;;;;;;;5.25;2.13;;;;;;;25.00;43.25;99170.66;4936859;29;20032;-93
2022/09/30 09:26:05;;;;;;;4.32;2.78;;;;;;;25.05;43.00;99175.06;4923856;29;20024;-94
2022/09/30 09:28:43;;;;;;;3.50;2.28;;;;;;;25.22;43.35;99193.06;4924829;29;20494;-95
2022/09/30 09:31:19;;;;;;;4.38;2.28;;;;;;;25.23;42.39;99186.38;4923830;29;20418;-95
2022/09/30 09:38:23;;;;;;;5.63;1.58;;;;;;;25.34;40.63;99185.38;4937670;23;20079;-96
2022/09/30 09:40:35;;;;;;;3.05;2.20;;;;;;;25.28;40.80;99170.34;4914574;29;20035;-94
2022/09/30 09:43:17;;;;;;;4.65;2.78;;;;;;;25.43;40.63;99181.56;4937058;29;20028;-95
2022/09/30 09:45:59;;;;;;;4.93;2.92;;;;;;;25.36;40.89;99179.50;4909341;29;20027;-96
2022/09/30 09:48:29;;;;;;;1.85;1.60;;;;;;;25.54;39.04;99204.53;4926863;29;20044;-95
2022/09/30 09:51:29;;;;;;;5.50;2.05;;;;;;;25.47;39.51;99179.66;4910175;29;20031;-95
2022/09/30 09:54:03;;;;;;;4.88;3.13;;;;;;;25.52;38.97;99176.53;4934454;29;20035;-93
2022/09/30 09:56:38;;;;;;;2.80;1.60;;;;;;;25.67;38.74;99180.28;4892084;29;20035;-93
2022/09/30 09:59:25;;;;;;;2.20;1.60;;;;;;;25.81;38.44;99185.97;4906894;29;20055;-95
2022/09/30 10:01:54;;;;;;;3.72;2.45;;;;;;;25.94;38.90;99183.78;4992673;23;20092;-96
2022/09/30 10:04:49;;;;;;;2.92;1.80;;;;;;;25.89;39.02;99159.28;4891880;29;20039;-95
2022/09/30 10:07:17;;;;;;;1.88;1.30;;;;;;;25.99;37.17;99167.69;4922717;29;20073;-95
2022/09/30 10:09:44;;;;;;;2.17;1.63;;;;;;;26.01;36.87;99165.34;4902234;29;20032;-95
2022/09/30 10:12:14;;;;;;;3.83;1.63;;;;;;;26.13;36.42;99180.06;4902907;29;20036;-95
2022/09/30 10:15:22;;;;;;;3.20;1.90;;;;;;;26.04;36.75;99152.75;4901974;29;20458;-93
2022/09/30 10:17:57;;;;;;;2.60;1.92;;;;;;;26.06;38.08;99164.22;4876789;29;20040;-95
2022/09/30 10:20:29;;;;;;;3.35;1.92;;;;;;;26.15;37.59;99173.00;4874547;29;20047;-94
2022/09/30 10:26:10;;;;;;;4.75;2.03;;;;;;;26.32;36.43;99182.63;4868374;29;20037;-95
2022/09/30 10:28:58;;;;;;;3.33;2.40;;;;;;;26.34;35.69;99174.75;4881524;29;20037;-96
2022/09/30 10:31:37;;;;;;;2.97;1.77;;;;;;;26.29;36.54;99143.94;4845377;29;20048;-91
2022/09/30 10:34:47;;;;;;;3.25;2.20;;;;;;;26.45;36.78;99169.34;4862971;29;20066;-92
2022/09/30 10:37:49;;;;;;;2.88;1.83;;;;;;;26.55;35.69;99176.13;4824651;29;20060;-94
2022/09/30 10:40:27;;;;;;;;;;;;;;;;;;;;;
2022/09/30 10:43:47;;;;;;;3.05;2.10;;;;;;;26.48;38.03;99154.78;4895968;29;20079;-96
2022/09/30 10:46:44;;;;;;;7.00;1.98;;;;;;;26.35;37.65;99158.97;4908684;29;20089;-96
2022/09/30 10:49:44;;;;;;;4.95;2.10;;;;;;;26.52;36.71;99169.41;4904506;29;20041;-96
2022/09/30 10:52:33;;;;;;;2.33;1.98;;;;;;;26.55;37.47;99184.41;4896660;29;20045;-96
2022/09/30 10:55:28;;;;;;;4.35;1.98;;;;;;;26.42;36.32;99161.81;4873583;29;20125;-96
2022/09/30 10:57:54;;;;;;;2.67;1.70;;;;;;;26.49;36.14;99161.09;5103676;23;20134;-96
2022/09/30 11:00:24;;;;;;;2.95;2.15;;;;;;;26.52;36.63;99171.34;4926090;29;20019;-95
2022/09/30 11:05:54;;;;;;;3.28;1.70;;;;;;;26.50;35.79;99160.72;4966948;28;20075;-96
2022/09/30 11:21:55;;;;;;;3.75;1.63;;;;;;;26.70;35.71;99188.13;4900037;29;19938;-94
2022/09/30 11:24:38;;;;;;;3.00;1.85;;;;;;;26.50;34.59;99163.47;4900359;29;20056;-95
2022/09/30 11:27:09;;;;;;;4.05;1.70;;;;;;;26.79;34.16;99185.81;4870310;29;20127;-94
2022/09/30 11:30:27;;;;;;;5.75;2.33;;;;;;;26.87;34.59;99186.69;4885809;29;20049;-95
2022/09/30 11:33:33;;;;;;;3.05;1.65;;;;;;;26.91;34.75;99193.81;4886151;29;20043;-94
2022/09/30 11:36:52;;;;;;;;;;;;;;;;;;;;;
2022/09/30 11:40:30;;;;;;;;;;;;;;;;;;;;;
2022/09/30 11:56:31;;;;;;;4.70;1.55;;;;;;;26.95;32.10;99163.44;4605911;23;20052;-96
2022/09/30 11:58:59;;;;;;;5.18;1.83;;;;;;;27.09;32.18;99185.66;4926545;29;20047;-93
2022/09/30 12:01:37;;;;;;;2.78;1.75;;;;;;;27.00;31.92;99169.41;4908226;29;20039;-91
2022/09/30 12:04:15;;;;;;;5.28;1.77;;;;;;;27.04;32.34;99169.44;4903296;29;20132;-96
2022/09/30 12:07:11;;;;;;;2.95;1.40;;;;;;;27.18;32.73;99191.63;4923268;29;20406;-94
2022/09/30 12:09:43;;;;;;;4.15;2.40;;;;;;;26.99;32.83;99161.50;4923144;29;20038;-94
2022/09/30 12:12:13;;;;;;;2.83;1.88;;;;;;;27.04;32.86;99157.59;4903630;29;20541;-91
2022/09/30 12:24:52;;;;;;;3.78;2.03;;;;;;;27.12;33.35;99165.56;4940652;29;19938;-96
2022/09/30 12:27:26;;;;;;;2.10;1.50;;;;;;;27.05;32.86;99159.19;4902936;29;20036;-94
2022/09/30 12:30:16;;;;;;;4.85;1.80;;;;;;;27.18;32.73;99161.22;4894900;29;20037;-95
2022/09/30 12:32:51;;;;;;;2.88;1.92;;;;;;;27.27;31.98;99185.00;4880488;29;20036;-90
2022/09/30 12:35:42;;;;;;;2.70;1.33;;;;;;;27.24;32.33;99191.31;4896240;29;20036;-90
2022/09/30 12:38:49;;;;;;;1.58;1.27;;;;;;;27.26;32.38;99191.72;4897361;29;20028;-96
2022/09/30 12:41:24;;;;;;;2.90;1.25;;;;;;;27.27;32.36;99185.81;4914553;29;20043;-96
2022/09/30 12:56:25;;;;;;;5.50;2.40;;;;;;;27.28;32.91;99170.81;5175794;23;20058;-96
2022/09/30 13:02:03;;;;;;;3.08;1.60;;;;;;;27.30;29.90;99167.66;4938163;29;20429;-96
2022/09/30 13:08:03;;;;;;;2.72;1.60;;;;;;;27.56;30.15;99194.28;4967012;29;20059;-96
2022/09/30 13:10:47;;;;;;;2.08;1.25;;;;;;;27.67;30.62;99189.56;4952936;29;20051;-96
2022/09/30 13:19:56;;;;;;;3.75;1.27;;;;;;;27.70;29.70;99188.00;4952203;29;20148;-96
2022/09/30 13:53:40;;;;;;;5.50;3.10;;;;;;;27.59;30.84;99229.44;4950852;28;20059;-92
2022/09/30 13:56:08;;;;;;;2.22;0.95;;;;;;;27.52;30.56;99210.84;4914570;29;20051;-93
2022/09/30 13:58:43;;;;;;;3.22;1.98;;;;;;;27.50;30.44;99215.97;4904941;29;20032;-96
2022/09/30 14:01:18;;;;;;;2.80;1.20;;;;;;;27.66;29.88;99228.69;4921887;29;20027;-96
2022/09/30 14:04:02;;;;;;;2.03;1.13;;;;;;;27.53;31.17;99231.78;4919990;29;20027;-95
2022/09/30 14:12:55;;;;;;;3.35;1.55;;;;;;;27.40;31.72;99228.53;5427006;23;20518;-93
2022/09/30 14:15:45;;;;;;;5.30;1.50;;;;;;;27.43;31.33;99243.56;4883653;29;20056;-90
2022/09/30 14:18:45;;;;;;;3.10;1.30;;;;;;;27.37;31.72;99245.09;4876739;29;20036;-93
2022/09/30 14:21:33;;;;;;;4.38;1.33;;;;;;;27.20;30.94;99227.97;4872966;29;20029;-91
2022/09/30 14:24:02;;;;;;;2.67;1.27;;;;;;;27.28;31.37;99239.91;4847817;29;20024;-91
2022/09/30 14:26:51;;;;;;;2.22;1.30;;;;;;;27.36;30.51;99249.84;4834635;29;20021;-91
2022/09/30 14:29:36;;;;;;;1.83;1.23;;;;;;;27.14;31.09;99225.97;4863751;29;20033;-92
2022/09/30 14:32:18;;;;;;;4.55;1.50;;;;;;;27.19;31.58;99244.97;4863374;29;20097;-92
2022/09/30 14:35:48;;;;;;;8.15;3.67;;;;;;;27.13;33.32;99246.50;4850328;29;20048;-92
2022/09/30 14:40:50;;;;;;;9.73;2.55;;;;;;;26.88;34.60;99257.34;5406894;23;20070;-95
2022/09/30 14:43:27;;;;;;;3.50;1.30;;;;;;;26.73;32.22;99257.22;5142961;24;20056;-94
2022/09/30 14:46:07;;;;;;;5.30;1.95;;;;;;;26.56;32.88;99249.50;4894823;29;20044;-95
2022/09/30 14:48:36;;;;;;;2.90;1.58;;;;;;;26.58;33.41;99264.59;4905310;29;20123;-96
2022/09/30 14:51:24;;;;;;;4.10;2.30;;;;;;;26.61;34.35;99287.88;4912605;29;20080;-94
2022/09/30 14:59:39;;;;;;;2.58;1.20;;;;;;;26.26;32.96;99272.47;4992153;23;20063;-95
2022/09/30 15:02:17;;;;;;;3.50;1.30;;;;;;;26.21;32.57;99276.38;4870395;29;20036;-95
2022/09/30 15:04:54;;;;;;;3.78;1.20;;;;;;;26.37;32.49;99305.72;4891420;29;20052;-96
2022/09/30 15:07:19;;;;;;;2.95;1.75;;;;;;;26.14;33.81;99289.28;4889622;29;20044;-95
2022/09/30 15:09:46;;;;;;;8.02;3.38;;;;;;;26.08;34.34;99288.00;4873095;29;20069;-95
2022/09/30 15:13:00;;;;;;;10.05;4.43;;;;;;;25.99;35.57;99288.31;4896778;29;20016;-96
2022/09/30 15:15:49;;;;;;;6.35;3.22;;;;;;;25.89;37.15;99292.50;5029387;23;20111;-96
2022/09/30 15:18:44;;;;;;;2.47;1.55;;;;;;;25.87;37.58;99318.84;4935904;29;20051;-95
2022/09/30 15:23:57;;;;;;;4.50;2.30;;;;;;;25.45;38.88;99298.56;5112649;23;20036;-95